Time;durP1;ratioP1;P1;durP2;ratioP2;P2;SDS_P1;SDS_P2;PMS_P1;PMS_P2;Temp;Humidity;BMP_temperature;BMP_pressure;BME280_temperature;BME280_humidity;BME280_pressure;Samples;Min_cycle;Max_cycle;Signal;HPM_P1;HPM_P2
2023/03/14 00:00:38;;;;;;;;;;;11.50;58.90;;;;;;5016119;28;19910;-72
2023/03/14 00:03:03;;;;;;;;;;;11.60;58.50;;;;;;5015878;28;20346;-70
2023/03/14 00:05:29;;;;;;;;;;;11.70;58.10;;;;;;5015997;28;19964;-72
2023/03/14 00:07:54;;;;;;;;;;;11.70;57.70;;;;;;5015533;28;19963;-72
2023/03/14 00:10:20;;;;;;;;;;;11.70;57.30;;;;;;5015691;28;19914;-71
2023/03/14 00:12:46;;;;;;;;;;;11.80;56.00;;;;;;5015548;28;19910;-71
2023/03/14 00:15:12;;;;;;;;;;;11.80;55.60;;;;;;5015614;28;19932;-71
2023/03/14 00:17:37;;;;;;;;;;;11.80;55.60;;;;;;5015485;28;19913;-72
2023/03/14 00:20:04;;;;;;;;;;;11.80;56.30;;;;;;5015219;28;19971;-72
2023/03/14 00:22:30;;;;;;;;;;;11.80;55.90;;;;;;5015186;28;20337;-72
2023/03/14 00:24:55;;;;;;;;;;;11.90;55.50;;;;;;5015225;28;20335;-71
2023/03/14 00:27:21;;;;;;;;;;;11.90;54.40;;;;;;5015014;28;19913;-72
2023/03/14 00:29:46;;;;;;;;;;;12.00;54.00;;;;;;5015646;28;19913;-73
2023/03/14 00:32:12;;;;;;;;;;;12.00;53.30;;;;;;5014842;28;20335;-72
2023/03/14 00:34:38;;;;;;;;;;;12.10;53.00;;;;;;5015112;28;19916;-72
2023/03/14 00:37:03;;;;;;;;;;;12.10;53.00;;;;;;5013732;28;19910;-72
2023/03/14 00:39:29;;;;;;;;;;;12.20;54.70;;;;;;5014902;28;20311;-73
2023/03/14 00:41:54;;;;;;;;;;;12.20;72.50;;;;;;5014775;28;19980;-74
2023/03/14 00:44:20;;;;;;;;;;;11.60;88.20;;;;;;5014769;28;19953;-71
2023/03/14 00:46:45;;;;;;;;;;;11.20;93.40;;;;;;5015831;28;19920;-72
2023/03/14 00:49:10;;;;;;;;;;;10.80;99.90;;;;;;5014991;28;19910;-73
2023/03/14 00:51:36;;;;;;;;;;;10.70;99.90;;;;;;5014936;28;20264;-72
2023/03/14 00:54:01;;;;;;;;;;;10.60;99.90;;;;;;5015241;28;19932;-72
2023/03/14 00:56:27;;;;;;;;;;;10.60;99.90;;;;;;5014629;28;19961;-71
2023/03/14 00:58:55;;;;;;;;;;;10.50;99.90;;;;;;5014681;28;19917;-69
2023/03/14 01:01:21;;;;;;;;;;;10.50;99.90;;;;;;5014153;28;19914;-72
2023/03/14 01:03:47;;;;;;;;;;;10.50;99.90;;;;;;5014403;28;19916;-71
2023/03/14 01:06:14;;;;;;;;;;;10.50;99.90;;;;;;5014164;28;19941;-70
2023/03/14 01:08:39;;;;;;;;;;;10.50;99.90;;;;;;5014243;28;19916;-71
2023/03/14 01:11:06;;;;;;;;;;;10.40;99.90;;;;;;5013876;28;19909;-70
2023/03/14 01:13:32;;;;;;;;;;;10.40;99.90;;;;;;5014140;28;19909;-70
2023/03/14 01:16:01;;;;;;;;;;;10.30;99.90;;;;;;5013975;28;19909;-72
2023/03/14 01:18:26;;;;;;;;;;;10.30;99.90;;;;;;5013927;28;19913;-70
2023/03/14 01:20:52;;;;;;;;;;;10.30;99.90;;;;;;5013788;28;19916;-71
2023/03/14 01:23:17;;;;;;;;;;;10.20;99.90;;;;;;5013876;28;19918;-71
2023/03/14 01:25:43;;;;;;;;;;;10.20;99.90;;;;;;5013768;28;19914;-71
2023/03/14 01:28:08;;;;;;;;;;;10.20;98.70;;;;;;5013613;28;20008;-71
2023/03/14 01:30:33;;;;;;;;;;;10.20;98.70;;;;;;5013745;28;19910;-71
2023/03/14 01:32:59;;;;;;;;;;;10.20;99.50;;;;;;5013605;28;19967;-71
2023/03/14 01:35:24;;;;;;;;;;;10.20;99.90;;;;;;5012483;28;19910;-71
2023/03/14 01:37:50;;;;;;;;;;;10.20;99.10;;;;;;5013456;28;20585;-71
2023/03/14 01:40:16;;;;;;;;;;;10.20;99.70;;;;;;5013500;28;19959;-71
2023/03/14 01:42:46;;;;;;;;;;;10.20;98.30;;;;;;5013501;28;19948;-71
2023/03/14 01:45:37;;;;;;;;;;;10.30;96.20;;;;;;5013612;28;19909;-71
2023/03/14 01:48:03;;;;;;;;;;;10.30;97.00;;;;;;5013426;28;19913;-71
2023/03/14 01:50:28;;;;;;;;;;;10.30;94.40;;;;;;5013411;28;19916;-70
2023/03/14 01:52:55;;;;;;;;;;;10.40;89.80;;;;;;5013451;28;19956;-71
2023/03/14 01:55:22;;;;;;;;;;;10.50;87.70;;;;;;5013593;28;19960;-71
2023/03/14 01:57:58;;;;;;;;;;;10.50;88.40;;;;;;5013733;28;19909;-71
2023/03/14 02:00:24;;;;;;;;;;;10.50;87.50;;;;;;5013733;28;19910;-71
2023/03/14 02:02:51;;;;;;;;;;;10.60;86.50;;;;;;5014233;28;20453;-71
2023/03/14 02:05:22;;;;;;;;;;;10.60;86.40;;;;;;5014541;28;19909;-72
2023/03/14 02:07:52;;;;;;;;;;;10.60;86.10;;;;;;5032916;28;19913;-71
2023/03/14 02:10:19;;;;;;;;;;;10.70;85.10;;;;;;5033071;28;19913;-71
2023/03/14 02:12:45;;;;;;;;;;;10.70;86.20;;;;;;5022832;28;19916;-71
2023/03/14 02:15:10;;;;;;;;;;;10.60;88.00;;;;;;5013238;28;19913;-71
2023/03/14 02:17:36;;;;;;;;;;;10.60;87.10;;;;;;5013246;28;19910;-71
2023/03/14 02:20:07;;;;;;;;;;;10.60;87.90;;;;;;5018002;28;19910;-70
2023/03/14 02:22:33;;;;;;;;;;;10.70;87.50;;;;;;5018117;28;19949;-70
2023/03/14 02:25:05;;;;;;;;;;;10.70;85.20;;;;;;5017874;28;20342;-70
2023/03/14 02:27:31;;;;;;;;;;;10.70;85.90;;;;;;5016200;28;20259;-72
2023/03/14 02:29:59;;;;;;;;;;;10.70;86.10;;;;;;5013867;28;19913;-71
2023/03/14 02:32:26;;;;;;;;;;;10.70;85.80;;;;;;5012875;28;19909;-71
2023/03/14 02:34:54;;;;;;;;;;;10.70;85.40;;;;;;5013406;28;19910;-70
2023/03/14 02:37:20;;;;;;;;;;;10.70;85.30;;;;;;5013923;28;19973;-72
2023/03/14 02:39:48;;;;;;;;;;;10.70;84.40;;;;;;5015084;28;19913;-71
2023/03/14 02:42:14;;;;;;;;;;;10.70;83.90;;;;;;5021271;28;19917;-71
2023/03/14 02:45:06;;;;;;;;;;;10.80;82.80;;;;;;5030074;28;20200;-71
2023/03/14 02:47:31;;;;;;;;;;;10.90;81.40;;;;;;5005041;28;19913;-72
2023/03/14 02:50:03;;;;;;;;;;;10.80;83.50;;;;;;5013816;28;19910;-72
2023/03/14 02:52:29;;;;;;;;;;;10.70;83.50;;;;;;5013289;28;20266;-71
2023/03/14 02:54:54;;;;;;;;;;;10.60;84.90;;;;;;5013080;28;20325;-72
2023/03/14 02:57:20;;;;;;;;;;;10.60;84.30;;;;;;5012707;28;20012;-72
2023/03/14 02:59:45;;;;;;;;;;;10.60;83.80;;;;;;5012327;28;19909;-71
2023/03/14 03:02:11;;;;;;;;;;;10.60;84.00;;;;;;5012512;28;19956;-72
2023/03/14 03:04:36;;;;;;;;;;;10.60;84.00;;;;;;5012849;28;20007;-72
2023/03/14 03:07:01;;;;;;;;;;;10.70;85.00;;;;;;5012127;28;19936;-72
2023/03/14 03:09:27;;;;;;;;;;;10.60;84.30;;;;;;5012397;28;19972;-71
2023/03/14 03:11:52;;;;;;;;;;;10.60;85.00;;;;;;5012253;28;19949;-71
2023/03/14 03:14:18;;;;;;;;;;;10.60;85.20;;;;;;5012330;28;19935;-71
2023/03/14 03:16:43;;;;;;;;;;;10.50;86.50;;;;;;5012602;28;19909;-71
2023/03/14 03:19:09;;;;;;;;;;;10.50;87.20;;;;;;5012508;28;19968;-71
2023/03/14 03:21:34;;;;;;;;;;;10.40;89.30;;;;;;5012362;28;19917;-71
2023/03/14 03:24:00;;;;;;;;;;;10.50;88.70;;;;;;5014103;28;19910;-71
2023/03/14 03:26:25;;;;;;;;;;;10.50;89.70;;;;;;5016185;28;19913;-72
2023/03/14 03:28:51;;;;;;;;;;;10.50;90.30;;;;;;5016279;28;19917;-71
2023/03/14 03:31:17;;;;;;;;;;;10.60;89.70;;;;;;5015762;28;19909;-72
2023/03/14 03:33:43;;;;;;;;;;;10.60;90.60;;;;;;5016136;28;19910;-72
2023/03/14 03:36:09;;;;;;;;;;;10.50;91.70;;;;;;5016322;28;19910;-71
2023/03/14 03:38:34;;;;;;;;;;;10.50;90.70;;;;;;5016040;28;19909;-71
2023/03/14 03:41:02;;;;;;;;;;;10.50;91.10;;;;;;5015795;28;19956;-71
2023/03/14 03:43:27;;;;;;;;;;;10.50;90.20;;;;;;5015864;28;19919;-71
2023/03/14 03:45:53;;;;;;;;;;;10.60;88.00;;;;;;5015601;28;19914;-71
2023/03/14 03:48:18;;;;;;;;;;;10.60;88.30;;;;;;5016192;28;19988;-72
2023/03/14 03:50:47;;;;;;;;;;;10.60;89.70;;;;;;5014931;28;19948;-71
2023/03/14 03:53:13;;;;;;;;;;;10.60;91.60;;;;;;5015945;28;19909;-71
2023/03/14 03:55:40;;;;;;;;;;;10.60;93.40;;;;;;5015546;28;19932;-71
2023/03/14 03:58:06;;;;;;;;;;;10.50;93.60;;;;;;5015507;28;19963;-71
2023/03/14 04:00:32;;;;;;;;;;;10.60;92.90;;;;;;5015509;28;19999;-70
2023/03/14 04:02:59;;;;;;;;;;;10.50;93.40;;;;;;5015130;28;19993;-71
2023/03/14 04:05:24;;;;;;;;;;;10.50;94.70;;;;;;5015251;28;19968;-71
2023/03/14 04:07:50;;;;;;;;;;;10.50;95.80;;;;;;5015275;28;19913;-71
2023/03/14 04:10:15;;;;;;;;;;;10.40;99.70;;;;;;5015181;28;19910;-71
2023/03/14 04:12:41;;;;;;;;;;;10.40;99.90;;;;;;5015086;28;19915;-71
2023/03/14 04:15:07;;;;;;;;;;;10.50;99.90;;;;;;5015334;28;19996;-71
2023/03/14 04:17:32;;;;;;;;;;;10.40;99.90;;;;;;5015387;28;19917;-71
2023/03/14 04:19:57;;;;;;;;;;;10.40;99.90;;;;;;5015173;28;19990;-72
2023/03/14 04:22:23;;;;;;;;;;;10.40;99.90;;;;;;5014878;28;19909;-72
2023/03/14 04:24:48;;;;;;;;;;;10.40;99.90;;;;;;5014839;28;19941;-72
2023/03/14 04:27:14;;;;;;;;;;;10.30;99.90;;;;;;5014696;28;19982;-72
2023/03/14 04:29:40;;;;;;;;;;;10.40;99.90;;;;;;5014664;28;19983;-71
2023/03/14 04:32:05;;;;;;;;;;;10.40;99.90;;;;;;5014722;28;19932;-71
2023/03/14 04:34:31;;;;;;;;;;;10.50;99.90;;;;;;5014421;28;19910;-71
2023/03/14 04:36:56;;;;;;;;;;;10.50;99.90;;;;;;5014897;28;19913;-71
2023/03/14 04:39:22;;;;;;;;;;;10.40;99.90;;;;;;5014651;28;19913;-71
2023/03/14 04:41:47;;;;;;;;;;;10.30;99.90;;;;;;5014526;28;20329;-71
2023/03/14 04:44:13;;;;;;;;;;;10.30;99.90;;;;;;5014384;28;20295;-72
2023/03/14 04:46:38;;;;;;;;;;;10.20;99.90;;;;;;5013095;28;19920;-71
2023/03/14 04:49:03;;;;;;;;;;;10.30;99.90;;;;;;5014285;28;19975;-71
2023/03/14 04:51:29;;;;;;;;;;;10.40;99.90;;;;;;5014378;28;20007;-70
2023/03/14 04:53:55;;;;;;;;;;;10.30;99.90;;;;;;5014482;28;19910;-71
2023/03/14 04:56:20;;;;;;;;;;;10.20;99.90;;;;;;5014241;28;19920;-70
2023/03/14 04:58:46;;;;;;;;;;;10.10;99.90;;;;;;5014352;28;19910;-72
2023/03/14 05:01:11;;;;;;;;;;;10.10;99.90;;;;;;5014135;28;19914;-71
2023/03/14 05:03:37;;;;;;;;;;;10.00;99.90;;;;;;5012892;28;19910;-71
2023/03/14 05:06:04;;;;;;;;;;;10.00;99.90;;;;;;5014357;28;20048;-71
2023/03/14 05:08:29;;;;;;;;;;;9.90;99.90;;;;;;5014415;28;19909;-72
2023/03/14 05:10:55;;;;;;;;;;;10.00;99.90;;;;;;5014172;28;20359;-70
2023/03/14 05:13:21;;;;;;;;;;;10.00;99.90;;;;;;5013978;28;19913;-70
2023/03/14 05:15:46;;;;;;;;;;;10.00;99.90;;;;;;5014027;28;19917;-70
2023/03/14 05:18:12;;;;;;;;;;;10.00;99.90;;;;;;5013721;28;20330;-71
2023/03/14 05:20:37;;;;;;;;;;;10.00;99.90;;;;;;5013906;28;20285;-73
2023/03/14 05:23:03;;;;;;;;;;;10.00;99.90;;;;;;5013934;28;19952;-71
2023/03/14 05:25:28;;;;;;;;;;;10.00;99.90;;;;;;5014624;28;19917;-71
2023/03/14 05:27:54;;;;;;;;;;;10.00;99.90;;;;;;5013694;28;20012;-72
2023/03/14 05:30:21;;;;;;;;;;;10.10;99.90;;;;;;5014224;28;19910;-72
2023/03/14 05:32:46;;;;;;;;;;;10.10;99.90;;;;;;5013795;28;20298;-70
2023/03/14 05:35:12;;;;;;;;;;;10.10;99.90;;;;;;5013721;28;19910;-72
2023/03/14 05:37:38;;;;;;;;;;;10.20;99.90;;;;;;5013584;28;19914;-70
2023/03/14 05:40:06;;;;;;;;;;;10.30;99.90;;;;;;5013448;28;19909;-72
2023/03/14 05:42:31;;;;;;;;;;;10.30;98.80;;;;;;5013602;28;19910;-70
2023/03/14 05:44:57;;;;;;;;;;;10.40;94.40;;;;;;5013534;28;19920;-72
2023/03/14 05:47:22;;;;;;;;;;;10.50;91.30;;;;;;5012282;28;19917;-70
2023/03/14 05:49:48;;;;;;;;;;;10.50;89.70;;;;;;5014156;28;20370;-71
2023/03/14 05:52:14;;;;;;;;;;;10.50;90.00;;;;;;5014022;28;19913;-71
2023/03/14 05:54:39;;;;;;;;;;;10.60;89.20;;;;;;5014399;28;19914;-71
2023/03/14 05:57:05;;;;;;;;;;;10.60;86.80;;;;;;5013743;28;20260;-71
2023/03/14 05:59:30;;;;;;;;;;;10.70;86.80;;;;;;5014031;28;20029;-72
2023/03/14 06:01:56;;;;;;;;;;;10.70;86.30;;;;;;5012834;28;19948;-71
2023/03/14 06:04:21;;;;;;;;;;;10.70;85.90;;;;;;5015607;28;19909;-71
2023/03/14 06:06:46;;;;;;;;;;;10.70;86.90;;;;;;5016590;28;19960;-72
2023/03/14 06:09:12;;;;;;;;;;;10.80;85.80;;;;;;5015523;28;19909;-72
2023/03/14 06:11:37;;;;;;;;;;;10.80;84.30;;;;;;5024476;28;19967;-71
2023/03/14 06:14:03;;;;;;;;;;;10.80;83.00;;;;;;5032920;28;19991;-72
2023/03/14 06:16:28;;;;;;;;;;;10.80;81.60;;;;;;5028344;28;20321;-72
2023/03/14 06:18:54;;;;;;;;;;;10.90;82.10;;;;;;5012608;28;19909;-71
2023/03/14 06:21:22;;;;;;;;;;;10.90;80.90;;;;;;5012600;28;19909;-73
2023/03/14 06:23:47;;;;;;;;;;;10.90;80.70;;;;;;5011401;28;20016;-71
2023/03/14 06:26:12;;;;;;;;;;;11.00;80.80;;;;;;5012353;28;20072;-72
2023/03/14 06:28:38;;;;;;;;;;;11.00;81.10;;;;;;5012540;28;20363;-70
2023/03/14 06:31:04;;;;;;;;;;;11.00;79.10;;;;;;5012827;28;19909;-73
2023/03/14 06:33:29;;;;;;;;;;;11.00;80.60;;;;;;5012471;28;19910;-72
2023/03/14 06:35:55;;;;;;;;;;;11.10;78.40;;;;;;5012303;28;19992;-72
2023/03/14 06:38:20;;;;;;;;;;;11.20;78.20;;;;;;5012455;28;19910;-72
2023/03/14 06:40:46;;;;;;;;;;;11.10;78.60;;;;;;5027437;28;19921;-73
2023/03/14 06:43:11;;;;;;;;;;;11.20;78.70;;;;;;5010686;28;20386;-71
2023/03/14 06:45:36;;;;;;;;;;;11.20;79.60;;;;;;5012191;28;20018;-72
2023/03/14 06:48:02;;;;;;;;;;;11.20;79.30;;;;;;5012354;28;20036;-72
2023/03/14 06:50:28;;;;;;;;;;;11.20;77.80;;;;;;5012513;28;19909;-73
2023/03/14 06:52:53;;;;;;;;;;;11.30;77.40;;;;;;5012199;28;19910;-71
2023/03/14 06:55:18;;;;;;;;;;;11.30;76.10;;;;;;5012118;28;19917;-71
2023/03/14 06:57:44;;;;;;;;;;;11.40;76.30;;;;;;5012288;28;20433;-73
2023/03/14 07:00:10;;;;;;;;;;;11.40;76.40;;;;;;5012305;28;19909;-72
2023/03/14 07:02:36;;;;;;;;;;;11.40;75.70;;;;;;5012241;28;19920;-73
2023/03/14 07:05:01;;;;;;;;;;;11.40;75.10;;;;;;5013341;28;20371;-72
2023/03/14 07:07:27;;;;;;;;;;;11.40;73.90;;;;;;5011046;28;19939;-70
2023/03/14 07:09:53;;;;;;;;;;;11.50;74.80;;;;;;5013516;28;19921;-73
2023/03/14 07:12:18;;;;;;;;;;;11.50;74.10;;;;;;5017100;28;19913;-73
2023/03/14 07:14:44;;;;;;;;;;;11.60;73.30;;;;;;5018365;28;19910;-74
2023/03/14 07:17:09;;;;;;;;;;;11.70;75.10;;;;;;5017790;28;19910;-70
2023/03/14 07:19:35;;;;;;;;;;;11.60;79.80;;;;;;5012272;28;19921;-72
2023/03/14 07:22:00;;;;;;;;;;;11.50;84.70;;;;;;5011675;28;19956;-73
2023/03/14 07:24:26;;;;;;;;;;;11.40;87.50;;;;;;5012252;28;20306;-72
2023/03/14 07:26:52;;;;;;;;;;;11.40;88.20;;;;;;5012145;28;19920;-72
2023/03/14 07:29:17;;;;;;;;;;;11.40;88.50;;;;;;5011647;28;19970;-71
2023/03/14 07:31:43;;;;;;;;;;;11.40;89.30;;;;;;5011666;28;19910;-71
2023/03/14 07:34:08;;;;;;;;;;;11.50;87.30;;;;;;5012519;28;19916;-73
2023/03/14 07:36:33;;;;;;;;;;;11.70;83.00;;;;;;5012735;28;20060;-72
2023/03/14 07:38:59;;;;;;;;;;;11.80;81.90;;;;;;5013151;28;19921;-71
2023/03/14 07:41:24;;;;;;;;;;;11.80;80.80;;;;;;5011861;28;19917;-71
2023/03/14 07:43:50;;;;;;;;;;;11.90;76.50;;;;;;5011779;28;19945;-71
2023/03/14 07:46:17;;;;;;;;;;;11.90;78.50;;;;;;5011711;28;19914;-73
2023/03/14 07:48:42;;;;;;;;;;;12.00;75.90;;;;;;5011896;28;19956;-72
2023/03/14 07:51:08;;;;;;;;;;;11.90;77.00;;;;;;5013970;28;20330;-72
2023/03/14 07:53:33;;;;;;;;;;;12.00;76.10;;;;;;5012117;28;19957;-71
2023/03/14 07:55:59;;;;;;;;;;;12.10;76.80;;;;;;5011636;28;19935;-72
2023/03/14 07:58:24;;;;;;;;;;;12.20;75.90;;;;;;5011457;28;19913;-72
2023/03/14 08:00:50;;;;;;;;;;;12.40;74.50;;;;;;5011581;28;19909;-71
2023/03/14 08:03:16;;;;;;;;;;;12.70;70.70;;;;;;5016771;28;19982;-71
2023/03/14 08:05:42;;;;;;;;;;;12.80;68.50;;;;;;5030020;28;19913;-73
2023/03/14 08:08:07;;;;;;;;;;;13.00;68.90;;;;;;5030203;28;20293;-70
2023/03/14 08:10:33;;;;;;;;;;;13.10;67.20;;;;;;5033417;28;20020;-73
2023/03/14 08:12:59;;;;;;;;;;;13.10;65.00;;;;;;5034921;28;19920;-72
2023/03/14 08:15:25;;;;;;;;;;;13.00;65.90;;;;;;5019403;28;19992;-72
2023/03/14 08:17:51;;;;;;;;;;;13.00;65.80;;;;;;5027247;28;19919;-74
2023/03/14 08:20:17;;;;;;;;;;;13.00;66.30;;;;;;5034250;28;19952;-70
2023/03/14 08:22:42;;;;;;;;;;;13.00;66.00;;;;;;5034720;28;19909;-72
2023/03/14 08:25:08;;;;;;;;;;;12.90;65.80;;;;;;5018538;28;19941;-71
2023/03/14 08:27:33;;;;;;;;;;;12.90;67.70;;;;;;5019561;28;19924;-72
2023/03/14 08:29:59;;;;;;;;;;;12.80;67.70;;;;;;5031466;28;19925;-71
2023/03/14 08:32:24;;;;;;;;;;;12.70;68.50;;;;;;5032232;28;19913;-72
2023/03/14 08:34:50;;;;;;;;;;;12.70;69.20;;;;;;5032770;28;19913;-71
2023/03/14 08:37:18;;;;;;;;;;;12.80;68.50;;;;;;5032145;28;20132;-70
2023/03/14 08:39:44;;;;;;;;;;;13.00;68.50;;;;;;5031854;28;19920;-71
2023/03/14 08:42:09;;;;;;;;;;;13.10;64.90;;;;;;5023364;28;19914;-71
2023/03/14 08:44:35;;;;;;;;;;;13.10;66.30;;;;;;5012625;28;20386;-71
2023/03/14 08:47:00;;;;;;;;;;;13.00;66.10;;;;;;5012727;28;19917;-70
2023/03/14 08:49:26;;;;;;;;;;;13.00;68.50;;;;;;5012624;28;19914;-72
2023/03/14 08:51:51;;;;;;;;;;;12.80;71.90;;;;;;5012052;28;19917;-73
2023/03/14 08:54:17;;;;;;;;;;;12.70;73.50;;;;;;5026914;28;19949;-72
2023/03/14 08:56:42;;;;;;;;;;;12.60;79.30;;;;;;5032296;28;19916;-69
2023/03/14 08:59:08;;;;;;;;;;;12.50;81.40;;;;;;5031878;28;19909;-72
2023/03/14 09:01:33;;;;;;;;;;;12.50;81.10;;;;;;5031348;28;19917;-71
2023/03/14 09:03:59;;;;;;;;;;;12.50;80.80;;;;;;5032290;28;19917;-70
2023/03/14 09:06:24;;;;;;;;;;;12.40;78.80;;;;;;5031957;28;19972;-72
2023/03/14 09:08:49;;;;;;;;;;;12.40;80.30;;;;;;5032352;28;19920;-70
2023/03/14 09:11:15;;;;;;;;;;;12.50;82.20;;;;;;5031335;28;20107;-71
2023/03/14 09:13:41;;;;;;;;;;;12.50;80.00;;;;;;5031938;28;19913;-71
2023/03/14 09:16:07;;;;;;;;;;;12.40;81.50;;;;;;5031614;28;19935;-71
2023/03/14 09:18:32;;;;;;;;;;;12.30;83.30;;;;;;5031214;28;19924;-70
2023/03/14 09:20:58;;;;;;;;;;;12.00;85.70;;;;;;5030673;28;19909;-71
2023/03/14 09:23:23;;;;;;;;;;;11.80;92.50;;;;;;5031533;28;19909;-71
2023/03/14 09:25:49;;;;;;;;;;;11.20;84.30;;;;;;5031341;28;19953;-72
2023/03/14 09:28:14;;;;;;;;;;;10.70;81.80;;;;;;5030926;28;20004;-70
2023/03/14 09:30:40;;;;;;;1.10;0.60;;;10.30;81.00;;;;;;5029853;28;20417;-70
2023/03/14 09:33:07;;;;;;;1.50;0.60;;;9.60;95.50;;;;;;5029518;28;20407;-71
2023/03/14 09:35:34;;;;;;;1.20;0.80;;;9.30;99.90;;;;;;5029638;28;20402;-70
2023/03/14 09:37:59;;;;;;;4.80;1.30;;;9.10;99.90;;;;;;5029495;28;20399;-71
2023/03/14 09:40:32;;;;;;;3.77;1.70;;;9.00;99.90;;;;;;5028801;28;20418;-71
2023/03/14 09:42:58;;;;;;;2.40;1.30;;;9.00;99.90;;;;;;5030671;28;20406;-72
2023/03/14 09:45:33;;;;;;;2.60;0.97;;;8.80;99.90;;;;;;5029654;28;20387;-71
2023/03/14 09:48:01;;;;;;;1.00;0.70;;;8.80;99.90;;;;;;5014607;28;20432;-71
2023/03/14 09:50:37;;;;;;;3.00;1.60;;;8.70;99.90;;;;;;5010384;28;20813;-71
2023/03/14 09:53:10;;;;;;;1.40;1.30;;;8.70;99.90;;;;;;5008547;28;20411;-70
2023/03/14 09:55:36;;;;;;;0.90;0.80;;;8.70;99.90;;;;;;5009810;28;20446;-73
2023/03/14 09:58:08;;;;;;;2.42;0.88;;;8.70;99.90;;;;;;5009711;28;20750;-71
2023/03/14 10:00:35;;;;;;;3.60;0.90;;;8.60;99.90;;;;;;5026194;28;20398;-71
2023/03/14 10:03:24;;;;;;;2.90;1.70;;;8.70;99.90;;;;;;5029098;28;20421;-70
2023/03/14 10:05:50;;;;;;;1.80;1.30;;;8.90;99.90;;;;;;5028980;28;20443;-72
2023/03/14 10:08:15;;;;;;;2.10;1.30;;;9.00;99.90;;;;;;5029162;28;20399;-72
2023/03/14 10:10:41;;;;;;;1.53;1.13;;;8.90;99.90;;;;;;5029746;28;20409;-72
2023/03/14 10:13:12;;;;;;;3.43;1.77;;;8.90;99.90;;;;;;5029252;28;20429;-72
2023/03/14 10:15:38;;;;;;;3.22;1.75;;;9.00;99.90;;;;;;5019593;28;20428;-72
2023/03/14 10:18:14;;;;;;;2.97;1.40;;;9.10;97.30;;;;;;5040910;28;20848;-72
2023/03/14 10:20:45;;;;;;;5.67;2.00;;;9.10;95.80;;;;;;5024773;28;20401;-71
2023/03/14 10:23:14;;;;;;;3.10;1.52;;;9.10;90.60;;;;;;5016737;28;20377;-71
2023/03/14 10:25:45;;;;;;;2.03;1.63;;;9.20;92.40;;;;;;5011581;28;20472;-73
2023/03/14 10:28:51;;;;;;;3.70;2.40;;;9.30;86.70;;;;;;5011263;28;20469;-72
2023/03/14 10:31:17;;;;;;;2.70;2.07;;;9.50;86.80;;;;;;5011318;28;20521;-72
2023/03/14 10:34:00;;;;;;;2.20;1.80;;;9.60;84.00;;;;;;5009665;28;20389;-71
2023/03/14 10:36:31;;;;;;;3.10;1.60;;;9.80;80.40;;;;;;5011233;28;20389;-71
2023/03/14 10:39:17;;;;;;;2.60;1.50;;;9.80;76.80;;;;;;5011152;28;20389;-71
2023/03/14 10:41:48;;;;;;;6.88;1.88;;;9.60;80.00;;;;;;5006862;28;20397;-72
2023/03/14 10:44:19;;;;;;;2.17;1.60;;;9.60;83.00;;;;;;5026295;28;20392;-71
2023/03/14 10:46:45;;;;;;;6.47;2.00;;;9.70;81.60;;;;;;5010786;28;20409;-72
2023/03/14 10:49:34;;;;;;;3.05;1.40;;;9.70;76.00;;;;;;5011307;28;20392;-71
2023/03/14 10:52:24;;;;;;;4.68;1.63;;;9.60;79.60;;;;;;5010782;28;20388;-72
2023/03/14 10:54:57;;;;;;;2.67;1.10;;;9.40;83.70;;;;;;5007726;28;20484;-72
2023/03/14 10:57:22;;;;;;;3.00;1.60;;;8.60;99.90;;;;;;5011028;28;20389;-72
2023/03/14 10:59:49;;;;;;;4.13;1.38;;;8.20;99.90;;;;;;5010792;28;20415;-70
2023/03/14 11:02:52;;;;;;;2.25;1.05;;;7.80;99.90;;;;;;5010828;28;20391;-72
2023/03/14 11:05:38;;;;;;;1.48;1.30;;;7.60;99.90;;;;;;5010915;28;20921;-71
2023/03/14 11:08:47;;;;;;;2.13;1.60;;;7.50;99.90;;;;;;5010941;28;20412;-72
2023/03/14 11:11:22;;;;;;;5.63;1.30;;;7.50;99.90;;;;;;5010451;28;20506;-72
2023/03/14 11:14:06;;;;;;;2.20;1.60;;;7.40;99.90;;;;;;5010607;28;20798;-71
2023/03/14 11:16:53;;;;;;;7.38;3.20;;;7.40;99.90;;;;;;5010602;28;20428;-72
2023/03/14 11:19:33;;;;;;;12.52;4.15;;;7.40;99.90;;;;;;5010943;28;20384;-70
2023/03/14 11:22:26;;;;;;;12.18;6.90;;;7.30;99.90;;;;;;5010965;28;20941;-71
2023/03/14 11:25:10;;;;;;;18.80;7.20;;;7.20;99.90;;;;;;5010815;28;20439;-71
2023/03/14 11:27:39;;;;;;;13.50;5.40;;;7.30;99.90;;;;;;5010460;28;20491;-71
2023/03/14 11:30:24;;;;;;;12.80;3.60;;;7.30;99.90;;;;;;5010857;28;20414;-71
2023/03/14 11:33:01;;;;;;;5.80;1.55;;;7.20;99.90;;;;;;5012106;28;20838;-71
2023/03/14 11:35:36;;;;;;;2.40;1.33;;;7.20;99.90;;;;;;5011404;28;20443;-71
2023/03/14 11:38:12;;;;;;;2.97;1.52;;;7.20;98.60;;;;;;5011327;28;20439;-72
2023/03/14 11:40:38;;;;;;;5.80;1.90;;;7.30;97.50;;;;;;5013254;28;20397;-72
2023/03/14 11:43:17;;;;;;;4.22;1.80;;;7.40;93.50;;;;;;5035987;28;20910;-72
2023/03/14 11:45:45;;;;;;;3.80;2.05;;;7.60;92.90;;;;;;5012830;28;20415;-72
2023/03/14 11:48:31;;;;;;;6.47;3.00;;;7.60;80.30;;;;;;5014398;28;20460;-71
2023/03/14 11:50:59;;;;;;;5.63;3.60;;;7.60;83.00;;;;;;5013795;28;20472;-72
2023/03/14 11:53:50;;;;;;;7.60;3.15;;;7.60;83.30;;;;;;5015274;28;20412;-71
2023/03/14 11:56:27;;;;;;;11.73;5.45;;;7.70;75.20;;;;;;5015174;28;20967;-71
2023/03/14 11:59:01;;;;;;;11.40;4.80;;;7.70;79.20;;;;;;5014187;28;20396;-71
2023/03/14 12:02:01;;;;;;;7.38;3.78;;;7.80;76.20;;;;;;5014142;28;20471;-73
2023/03/14 12:04:54;;;;;;;7.07;3.50;;;7.80;71.00;;;;;;5013584;28;20409;-71
2023/03/14 12:07:25;;;;;;;4.77;2.57;;;7.80;74.70;;;;;;5014395;28;20419;-72
2023/03/14 12:09:52;;;;;;;7.60;3.20;;;7.70;69.50;;;;;;5013922;28;20377;-71
2023/03/14 12:12:25;;;;;;;6.88;3.17;;;7.70;72.50;;;;;;5012944;28;20381;-70
2023/03/14 12:15:00;;;;;;;1.77;1.60;;;7.70;74.20;;;;;;5014484;28;20863;-72
2023/03/14 12:17:46;;;;;;;7.00;2.40;;;7.70;72.20;;;;;;5013894;28;20407;-72
2023/03/14 12:20:14;;;;;;;12.68;2.08;;;7.80;69.20;;;;;;5013722;28;20393;-70
2023/03/14 12:22:52;;;;;;;4.20;2.03;;;7.90;64.60;;;;;;5014228;28;20885;-72
2023/03/14 12:25:26;;;;;;;5.20;2.05;;;8.00;62.60;;;;;;5015195;28;20388;-72
2023/03/14 12:27:54;;;;;;;7.87;2.30;;;8.00;59.90;;;;;;5013898;28;20424;-72
2023/03/14 12:30:29;;;;;;;6.15;2.60;;;8.30;62.20;;;;;;5048991;23;20440;-74
2023/03/14 12:33:10;;;;;;;7.28;1.52;;;8.60;60.00;;;;;;5054197;28;20378;-74
2023/03/14 12:35:48;;;;;;;5.43;2.50;;;8.50;54.10;;;;;;5054024;28;20422;-73
2023/03/14 12:38:31;;;;;;;5.72;1.98;;;8.60;55.70;;;;;;5055304;28;20389;-75
2023/03/14 12:41:14;;;;;;;5.10;1.90;;;8.70;55.60;;;;;;5055091;28;20389;-75
2023/03/14 12:43:39;;;;;;;9.98;1.80;;;8.60;52.70;;;;;;5054827;28;20749;-75
2023/03/14 12:46:16;;;;;;;4.38;1.90;;;8.60;49.80;;;;;;5054679;28;20406;-75
2023/03/14 12:48:44;;;;;;;4.18;1.60;;;8.70;51.60;;;;;;5052220;28;20922;-74
2023/03/14 12:51:19;;;;;;;6.20;1.47;;;8.50;47.70;;;;;;5053349;28;20385;-74
2023/03/14 12:54:38;;;;;;;8.48;1.65;;;8.40;50.80;;;;;;5053535;28;20506;-75
2023/03/14 12:57:31;;;;;;;4.13;1.50;;;8.10;52.90;;;;;;4983568;28;20408;-74
2023/03/14 13:00:00;;;;;;;6.90;1.50;;;7.40;80.90;;;;;;5053685;28;20720;-74
2023/03/14 13:02:27;;;;;;;6.45;1.83;;;6.70;99.90;;;;;;5053083;28;20444;-75
2023/03/14 13:05:02;;;;;;;7.13;2.10;;;6.70;99.90;;;;;;5053753;28;20393;-74
2023/03/14 13:07:44;;;;;;;12.30;2.90;;;6.70;95.30;;;;;;5035863;28;20408;-74
2023/03/14 13:10:09;;;;;;;11.90;2.90;;;6.90;93.10;;;;;;5035145;28;20424;-75
2023/03/14 13:12:49;;;;;;;9.80;2.83;;;6.90;88.60;;;;;;5053238;28;20377;-75
2023/03/14 13:15:27;;;;;;;12.05;3.35;;;7.20;87.70;;;;;;5053635;28;20767;-75
2023/03/14 13:17:54;;;;;;;10.80;3.33;;;7.40;80.40;;;;;;5035621;28;20396;-75
2023/03/14 13:20:29;;;;;;;12.48;3.53;;;7.50;74.00;;;;;;5035644;28;20423;-75
2023/03/14 13:22:55;;;;;;;12.63;2.88;;;7.60;71.00;;;;;;5053359;28;20430;-75
2023/03/14 13:25:22;;;;;;;16.10;3.70;;;7.60;66.50;;;;;;5053838;28;20715;-74
2023/03/14 13:27:48;;;;;;;20.43;3.50;;;7.70;64.40;;;;;;5053956;28;20402;-75
2023/03/14 13:30:35;;;;;;;21.77;3.20;;;7.70;62.30;;;;;;5053856;28;20400;-74
2023/03/14 13:33:04;;;;;;;17.02;2.80;;;7.70;62.70;;;;;;5035544;28;20391;-74
2023/03/14 13:36:04;;;;;;;21.30;3.35;;;7.60;59.30;;;;;;5053211;28;20389;-73
2023/03/14 13:38:32;;;;;;;16.73;3.30;;;7.60;64.00;;;;;;5050111;28;20400;-74
2023/03/14 13:41:05;;;;;;;18.17;2.95;;;7.50;63.50;;;;;;5051128;28;20385;-74
2023/03/14 13:43:35;;;;;;;25.35;3.90;;;7.10;66.40;;;;;;5054118;28;20789;-76
2023/03/14 13:46:19;;;;;;;20.75;4.88;;;6.80;73.20;;;;;;5053675;28;20448;-75
2023/03/14 13:48:48;;;;;;;19.38;3.30;;;6.70;78.80;;;;;;5039863;28;20932;-74
2023/03/14 13:51:16;;;;;;;27.10;4.30;;;6.60;75.40;;;;;;5068125;28;20393;-75
2023/03/14 13:53:47;;;;;;;21.53;3.50;;;6.80;80.50;;;;;;5040091;28;20425;-75
2023/03/14 13:56:13;;;;;;;19.75;3.75;;;6.90;73.30;;;;;;5053512;28;20385;-75
2023/03/14 13:58:40;;;;;;;18.55;3.22;;;7.20;75.70;;;;;;5042865;28;20909;-76